Clarks Point, Alaska
Current Conditions -  °F | °C
As of 6:56 AM on Thursday 30 Oct 2014 (Local Time) from PFCL Reporting Station
Overcast Overcast  
Wind Chill: 10°   Ceiling: 400
Heat Index: 17°   Visibility: 10mi
Dew Point: 14°   Wind: 5mph
Humidity: 88%   Direction: 130°SE
Pressure: 29.84"   Gusts: NA
Location:  58.84°N, 158.55°W
Report Text: PFCL 301456Z AUTO 13004KT 10SM OVC004 M08/M10 A2984 RMK AO2 SLP108 T10831100 55002 FZRANO
Loading
Personal Weather Stations






























Interactive Weather Map
Tropical Storm Tracking
New forecast layout! Learn more

10-Day Weather Forecast

Advertisements
Track Severe Weather on mobile